Viking Amber — 9V7985 — position and weather

sailwx.info

Track history (hours):
 
Tides and Currents Weather Stations Pressure Air Temp Water Temp Dewpoint Dewpoint Depression Visibility Wind Speed Wind Dir Waves Ship Positions

Viking Amber

Last reported at 2016-May-28 12:10 UTC. Time now 2016-May-29 15:26 UTC.
Position N 34°00' E 134°57'.

Length 167 m; draft 7.5 m.

Type: Other ship. MMSI: 563255000.

Date/timePositionNaut miles runAvg speedWind from/ knotsBaromVisibWave heightAir tempDewpointWater temp
2016-May-28 12:10N 34°00' E 134°57'915.1
2016-May-28 11:33N 34°10' E 134°57'1514.9
2016-May-28 10:33N 34°24' E 135°03'1717.3
2016-May-28 09:33N 34°32' E 135°21'2 1.2
2016-May-28 07:30N 34°31' E 135°23'0 0.0
2016-May-28 06:12N 34°31' E 135°23'0 0.0
2016-May-28 04:24N 34°31' E 135°23'0 0.0
2016-May-28 03:30N 34°31' E 135°23'0 0.0
2016-May-28 02:30N 34°31' E 135°23'0 0.1
2016-May-28 00:33N 34°31' E 135°23'7 6.9
2016-May-27 23:33N 34°30' E 135°15'1716.6
2016-May-27 22:33N 34°19' E 134°60'1312.8
2016-May-27 21:33N 34°06' E 134°60'239 6.6
2016-May-26 09:32N 35°04' E 139°41'1111.3
2016-May-26 08:33N 35°14' E 139°46'1212.0
2016-May-26 07:33N 35°26' E 139°42'2 1.7
2016-May-26 06:31N 35°27' E 139°41'0 0.0
2016-May-26 05:31N 35°27' E 139°41'0 0.0
2016-May-26 04:31N 35°27' E 139°41'0 0.0
2016-May-26 03:31N 35°27' E 139°41'0 0.0
2016-May-26 02:31N 35°27' E 139°41'0 0.0
2016-May-26 01:31N 35°27' E 139°41'0 0.0
2016-May-26 00:31N 35°27' E 139°41'0 0.0
2016-May-25 23:31N 35°27' E 139°41'2 2.1
2016-May-25 22:33N 35°26' E 139°42'1111.2
2016-May-25 21:33N 35°15' E 139°47'1111.1
2016-May-25 20:34N 35°04' E 139°44'1312.5
2016-May-25 19:32N 34°57' E 139°31'  
Track history (hours):
 
Tides and Currents Weather Stations Pressure Air Temp Water Temp Dewpoint Dewpoint Depression Visibility Wind Speed Wind Dir Waves Ship Positions

Viking Amber

Last reported at 2016-May-28 12:10 UTC. Time now 2016-May-29 15:26 UTC.
Position N 34°00' E 134°57'.

Length 167 m; draft 7.5 m.

Type: Other ship. MMSI: 563255000.

Date/timePositionNaut miles runAvg speedWind from/ knotsBaromVisibWave heightAir tempDewpointWater temp
2016-May-28 12:10N 34°00' E 134°57'915.1
2016-May-28 11:33N 34°10' E 134°57'1514.9
2016-May-28 10:33N 34°24' E 135°03'1717.3
2016-May-28 09:33N 34°32' E 135°21'2 1.2
2016-May-28 07:30N 34°31' E 135°23'0 0.0
2016-May-28 06:12N 34°31' E 135°23'0 0.0
2016-May-28 04:24N 34°31' E 135°23'0 0.0
2016-May-28 03:30N 34°31' E 135°23'0 0.0
2016-May-28 02:30N 34°31' E 135°23'0 0.1
2016-May-28 00:33N 34°31' E 135°23'7 6.9
2016-May-27 23:33N 34°30' E 135°15'1716.6
2016-May-27 22:33N 34°19' E 134°60'1312.8
2016-May-27 21:33N 34°06' E 134°60'239 6.6
2016-May-26 09:32N 35°04' E 139°41'1111.3
2016-May-26 08:33N 35°14' E 139°46'1212.0
2016-May-26 07:33N 35°26' E 139°42'2 1.7
2016-May-26 06:31N 35°27' E 139°41'0 0.0
2016-May-26 05:31N 35°27' E 139°41'0 0.0
2016-May-26 04:31N 35°27' E 139°41'0 0.0
2016-May-26 03:31N 35°27' E 139°41'0 0.0
2016-May-26 02:31N 35°27' E 139°41'0 0.0
2016-May-26 01:31N 35°27' E 139°41'0 0.0
2016-May-26 00:31N 35°27' E 139°41'0 0.0
2016-May-25 23:31N 35°27' E 139°41'2 2.1
2016-May-25 22:33N 35°26' E 139°42'1111.2
2016-May-25 21:33N 35°15' E 139°47'1111.1
2016-May-25 20:34N 35°04' E 139°44'1312.5
2016-May-25 19:32N 34°57' E 139°31'  

Dump ship's entire track history